createdAt,value
2023-05-19T00:01:53.182Z,3.40
2023-05-19T00:03:58.888Z,3.42
2023-05-19T00:06:03.434Z,4.83
2023-05-19T00:08:06.818Z,3.92
2023-05-19T00:10:11.013Z,3.92
2023-05-19T00:12:15.141Z,3.60
2023-05-19T00:14:18.263Z,3.42
2023-05-19T00:16:23.669Z,4.38
2023-05-19T00:18:26.528Z,3.22
2023-05-19T00:20:29.401Z,4.30
2023-05-19T00:22:32.194Z,4.43
2023-05-19T00:24:35.264Z,3.42
2023-05-19T00:26:38.026Z,4.40
2023-05-19T00:28:42.786Z,3.10
2023-05-19T00:30:45.914Z,3.10
2023-05-19T00:32:50.046Z,3.22
2023-05-19T00:34:53.757Z,3.75
2023-05-19T00:36:56.547Z,3.17
2023-05-19T00:38:59.292Z,2.92
2023-05-19T00:41:02.876Z,3.65
2023-05-19T00:43:08.330Z,3.53
2023-05-19T00:45:11.618Z,3.03
2023-05-19T00:47:14.374Z,3.45
2023-05-19T00:49:18.428Z,3.67
2023-05-19T00:51:21.300Z,3.45
2023-05-19T00:53:24.544Z,3.58
2023-05-19T00:55:30.122Z,3.47
2023-05-19T00:57:32.852Z,3.47
2023-05-19T00:59:37.220Z,3.53
2023-05-19T01:01:40.177Z,3.30
2023-05-19T01:03:44.348Z,3.15
2023-05-19T01:05:49.791Z,3.33
2023-05-19T01:07:53.580Z,3.47
2023-05-19T01:09:57.156Z,3.58
2023-05-19T01:12:00.652Z,3.22
2023-05-19T01:14:03.682Z,3.50
2023-05-19T01:16:12.481Z,3.47
2023-05-19T01:18:20.758Z,3.00
2023-05-19T01:20:29.127Z,4.22
2023-05-19T01:23:02.769Z,3.97
2023-05-19T01:25:49.560Z,3.30
2023-05-19T01:28:23.203Z,3.17
2023-05-19T01:30:34.890Z,3.38
2023-05-19T01:32:40.798Z,3.40
2023-05-19T01:34:47.608Z,3.10
2023-05-19T01:36:52.254Z,3.28
2023-05-19T01:38:57.193Z,3.75
2023-05-19T01:41:01.340Z,3.78
2023-05-19T01:43:04.802Z,3.55
2023-05-19T01:45:10.382Z,2.90
2023-05-19T01:47:15.396Z,3.70
2023-05-19T01:49:18.680Z,3.53
2023-05-19T01:51:21.468Z,3.60
2023-05-19T01:53:25.090Z,3.08
2023-05-19T01:55:28.094Z,3.00
2023-05-19T01:57:41.579Z,3.70
2023-05-19T01:59:53.495Z,3.35
2023-05-19T02:02:00.421Z,3.20
2023-05-19T02:04:19.212Z,3.38
2023-05-19T02:06:33.872Z,3.20
2023-05-19T02:08:45.088Z,3.30
2023-05-19T02:10:56.115Z,3.20
2023-05-19T02:13:02.386Z,3.30
2023-05-19T02:15:08.276Z,3.40
2023-05-19T02:17:13.831Z,3.20
2023-05-19T02:19:25.507Z,3.50
2023-05-19T02:21:31.141Z,3.85
2023-05-19T02:23:33.920Z,3.20
2023-05-19T02:25:36.673Z,3.20
2023-05-19T02:27:40.100Z,3.13
2023-05-19T02:29:42.849Z,3.10
2023-05-19T02:31:46.788Z,3.05
2023-05-19T02:33:49.563Z,3.10
2023-05-19T02:35:53.964Z,3.20
2023-05-19T02:37:57.285Z,3.05
2023-05-19T02:40:00.047Z,3.08
2023-05-19T02:42:02.834Z,3.35
2023-05-19T02:44:06.422Z,2.70
2023-05-19T02:46:09.741Z,2.92
2023-05-19T02:48:12.687Z,3.47
2023-05-19T02:50:15.485Z,3.47
2023-05-19T02:52:19.621Z,3.20
2023-05-19T02:54:22.522Z,3.08
2023-05-19T02:56:26.406Z,2.97
2023-05-19T02:58:29.228Z,3.00
2023-05-19T03:00:32.371Z,3.10
2023-05-19T03:02:35.440Z,3.05
2023-05-19T03:04:42.222Z,3.30
2023-05-19T03:06:45.735Z,3.40
2023-05-19T03:08:50.042Z,3.33
2023-05-19T03:10:52.782Z,3.47
2023-05-19T03:12:55.538Z,3.08
2023-05-19T03:14:58.333Z,2.70
2023-05-19T03:17:01.750Z,2.67
2023-05-19T03:19:04.611Z,3.08
2023-05-19T03:21:07.399Z,3.13
2023-05-19T03:23:10.463Z,2.90
2023-05-19T03:25:14.679Z,2.72
2023-05-19T03:27:17.997Z,3.10
2023-05-19T03:29:21.491Z,3.30
2023-05-19T03:31:24.515Z,3.08
2023-05-19T03:33:29.787Z,3.10
2023-05-19T03:35:33.045Z,3.60
2023-05-19T03:37:35.920Z,3.17
2023-05-19T03:39:39.222Z,3.45
2023-05-19T03:41:43.661Z,2.80
2023-05-19T03:43:46.591Z,2.95
2023-05-19T03:45:49.458Z,3.22
2023-05-19T03:48:26.730Z,3.22
2023-05-19T03:50:58.006Z,3.17
2023-05-19T03:53:02.785Z,3.10
2023-05-19T03:55:09.945Z,3.13
2023-05-19T03:57:15.029Z,3.20
2023-05-19T03:59:17.910Z,2.88
2023-05-19T04:01:20.663Z,3.05
2023-05-19T04:03:23.576Z,3.33
2023-05-19T04:05:26.726Z,3.35
2023-05-19T04:07:29.929Z,2.70
2023-05-19T04:09:35.207Z,3.22
2023-05-19T04:11:38.989Z,3.40
2023-05-19T04:13:44.497Z,2.85
2023-05-19T04:15:48.563Z,3.22
2023-05-19T04:17:51.553Z,3.28
2023-05-19T04:19:54.575Z,3.05
2023-05-19T04:21:58.205Z,3.08
2023-05-19T04:24:01.091Z,2.92
2023-05-19T04:26:06.900Z,3.30
2023-05-19T04:28:09.796Z,3.55
2023-05-19T04:30:22.346Z,3.33
2023-05-19T04:32:26.329Z,3.53
2023-05-19T04:34:30.762Z,3.60
2023-05-19T04:36:34.067Z,3.25
2023-05-19T04:38:39.908Z,3.20
2023-05-19T04:40:44.581Z,3.28
2023-05-19T04:42:49.862Z,3.33
2023-05-19T04:44:52.680Z,3.30
2023-05-19T04:46:58.937Z,3.20
2023-05-19T04:49:02.259Z,3.15
2023-05-19T04:51:05.591Z,3.47
2023-05-19T04:53:08.420Z,3.35
2023-05-19T04:55:13.072Z,3.00
2023-05-19T04:57:16.158Z,3.40
2023-05-19T04:59:18.941Z,3.40
2023-05-19T05:01:25.900Z,3.22
2023-05-19T05:03:33.164Z,3.72
2023-05-19T05:05:36.782Z,3.42
2023-05-19T05:07:39.620Z,3.13
2023-05-19T05:09:42.554Z,3.28
2023-05-19T05:11:47.585Z,3.33
2023-05-19T05:13:50.962Z,3.03
2023-05-19T05:15:54.377Z,3.00
2023-05-19T05:17:58.424Z,3.60
2023-05-19T05:20:04.576Z,3.30
2023-05-19T05:22:08.017Z,3.47
2023-05-19T05:24:15.398Z,3.38
2023-05-19T05:26:23.732Z,3.70
2023-05-19T05:28:31.436Z,3.63
2023-05-19T05:30:35.569Z,3.15
2023-05-19T05:32:39.701Z,3.83
2023-05-19T05:34:48.858Z,2.90
2023-05-19T05:36:53.607Z,4.07
2023-05-19T05:38:56.498Z,4.18
2023-05-19T05:40:59.515Z,3.63
2023-05-19T05:43:02.270Z,3.70
2023-05-19T05:45:09.150Z,3.67
2023-05-19T05:47:13.744Z,3.50
2023-05-19T05:49:17.083Z,3.88
2023-05-19T05:51:23.176Z,3.80
2023-05-19T05:53:32.243Z,3.35
2023-05-19T05:55:37.615Z,3.60
2023-05-19T05:57:42.598Z,3.50
2023-05-19T05:59:47.156Z,3.17
2023-05-19T06:01:50.638Z,3.30
2023-05-19T06:03:55.096Z,3.10
2023-05-19T06:05:59.675Z,3.40
2023-05-19T06:08:02.746Z,3.65
2023-05-19T06:10:08.842Z,3.00
2023-05-19T06:12:12.087Z,3.30
2023-05-19T06:14:20.588Z,3.65
2023-05-19T06:16:42.221Z,3.47
2023-05-19T06:18:45.471Z,3.88
2023-05-19T06:20:48.275Z,3.17
2023-05-19T06:22:51.173Z,3.60
2023-05-19T06:24:56.302Z,3.75
2023-05-19T06:27:00.471Z,3.20
2023-05-19T06:29:03.238Z,3.60
2023-05-19T06:31:06.174Z,3.70
2023-05-19T06:33:23.173Z,3.97
2023-05-19T06:35:26.057Z,3.92
2023-05-19T06:37:28.829Z,3.60
2023-05-19T06:39:31.863Z,4.00
2023-05-19T06:41:36.300Z,3.88
2023-05-19T06:43:40.632Z,3.50
2023-05-19T06:45:44.324Z,3.57
2023-05-19T06:47:47.648Z,3.40
2023-05-19T06:49:55.127Z,4.17
2023-05-19T06:52:01.319Z,3.50
2023-05-19T06:54:04.156Z,5.90
2023-05-19T06:56:07.995Z,4.10
2023-05-19T06:58:12.884Z,3.47
2023-05-19T07:00:19.948Z,4.13
2023-05-19T07:02:26.542Z,3.77
2023-05-19T07:04:29.515Z,3.27
2023-05-19T07:06:33.876Z,3.30
2023-05-19T07:08:37.250Z,3.70
2023-05-19T07:10:41.776Z,3.53
2023-05-19T07:12:48.436Z,3.90
2023-05-19T07:14:53.546Z,3.60
2023-05-19T07:16:58.093Z,3.70
2023-05-19T07:19:00.892Z,3.70
2023-05-19T07:21:03.791Z,3.87
2023-05-19T07:23:07.359Z,3.60
2023-05-19T07:25:11.595Z,3.93
2023-05-19T07:27:16.264Z,3.50
2023-05-19T07:29:19.016Z,3.73
2023-05-19T07:31:21.762Z,3.00
2023-05-19T07:33:26.974Z,2.90
2023-05-19T07:35:29.746Z,3.77
2023-05-19T07:37:32.570Z,3.30
2023-05-19T07:39:36.704Z,3.60
2023-05-19T07:41:39.476Z,3.50
2023-05-19T07:43:42.276Z,3.63
2023-05-19T07:45:45.075Z,3.50
2023-05-19T07:47:47.971Z,3.20
2023-05-19T07:49:52.181Z,3.23
2023-05-19T07:51:55.148Z,3.70
2023-05-19T07:53:58.277Z,4.13
2023-05-19T07:56:01.051Z,4.00
2023-05-19T07:58:03.731Z,3.70
2023-05-19T08:00:11.530Z,4.00
2023-05-19T08:02:17.679Z,3.70
2023-05-19T08:04:20.595Z,3.57
2023-05-19T08:06:25.284Z,4.17
2023-05-19T08:08:28.139Z,4.77
2023-05-19T08:10:31.452Z,3.90
2023-05-19T08:12:34.366Z,3.60
2023-05-19T08:14:37.388Z,4.20
2023-05-19T08:16:41.815Z,3.70
2023-05-19T08:18:44.608Z,3.70
2023-05-19T08:20:47.470Z,3.87
2023-05-19T08:22:51.740Z,4.10
2023-05-19T08:24:54.514Z,3.87
2023-05-19T08:26:57.293Z,4.17
2023-05-19T08:29:00.157Z,3.90
2023-05-19T08:31:03.019Z,3.90
2023-05-19T08:33:06.360Z,3.90
2023-05-19T08:35:10.325Z,3.40
2023-05-19T08:37:13.184Z,3.20
2023-05-19T08:39:19.578Z,3.80
2023-05-19T08:41:23.246Z,3.80
2023-05-19T08:43:26.247Z,4.53
2023-05-19T08:45:29.807Z,3.70
2023-05-19T08:47:34.176Z,3.27
2023-05-19T08:49:44.780Z,3.40
2023-05-19T08:51:56.219Z,3.77
2023-05-19T08:54:10.135Z,3.93
2023-05-19T08:56:17.722Z,3.40
2023-05-19T08:58:21.683Z,3.60
2023-05-19T09:00:25.487Z,3.60
2023-05-19T09:02:28.904Z,3.70
2023-05-19T09:04:33.007Z,3.20
2023-05-19T09:06:35.860Z,3.60
2023-05-19T09:08:38.646Z,3.53
2023-05-19T09:10:41.412Z,2.93
2023-05-19T09:12:48.842Z,3.60
2023-05-19T09:14:51.662Z,3.90
2023-05-19T09:16:55.175Z,2.90
2023-05-19T09:19:01.018Z,3.20
2023-05-19T09:21:03.892Z,3.30
2023-05-19T09:23:07.795Z,3.20
2023-05-19T09:25:19.328Z,3.30
2023-05-19T09:27:23.621Z,3.67
2023-05-19T09:29:27.738Z,3.20
2023-05-19T09:31:33.667Z,3.37
2023-05-19T09:33:37.650Z,3.10
2023-05-19T09:35:40.586Z,3.23
2023-05-19T09:37:44.175Z,3.80
2023-05-19T09:39:49.192Z,3.20
2023-05-19T09:41:52.805Z,3.10
2023-05-19T09:43:56.184Z,3.20
2023-05-19T09:46:04.604Z,3.10
2023-05-19T09:48:08.251Z,2.70
2023-05-19T09:50:12.706Z,3.40
2023-05-19T09:52:17.036Z,3.27
2023-05-19T09:54:21.738Z,2.90
2023-05-19T09:56:25.439Z,2.80
2023-05-19T09:58:28.183Z,3.20
2023-05-19T10:00:33.832Z,2.43
2023-05-19T10:02:41.239Z,3.10
2023-05-19T10:04:44.893Z,3.13
2023-05-19T10:06:53.417Z,2.67
2023-05-19T10:08:56.760Z,3.10
2023-05-19T10:11:00.164Z,2.90
2023-05-19T10:13:04.070Z,3.10
2023-05-19T10:15:09.963Z,2.80
2023-05-19T10:17:14.379Z,2.50
2023-05-19T10:19:21.716Z,2.70
2023-05-19T10:21:24.506Z,3.23
2023-05-19T10:23:27.624Z,2.63
2023-05-19T10:25:32.835Z,2.70
2023-05-19T10:27:37.785Z,3.30
2023-05-19T10:29:46.685Z,2.80
2023-05-19T10:31:53.037Z,3.00
2023-05-19T10:34:13.814Z,3.27
2023-05-19T10:36:40.181Z,3.00
2023-05-19T10:38:49.634Z,2.67
2023-05-19T10:40:59.085Z,3.30
2023-05-19T10:43:18.311Z,2.83
2023-05-19T10:45:23.518Z,2.93
2023-05-19T10:47:26.963Z,3.33
2023-05-19T10:49:29.918Z,3.13
2023-05-19T10:51:36.060Z,3.17
2023-05-19T10:53:46.381Z,2.90
2023-05-19T10:55:55.975Z,3.13
2023-05-19T10:57:58.762Z,2.80
2023-05-19T11:00:11.271Z,3.00
2023-05-19T11:02:39.735Z,3.30
2023-05-19T11:04:51.854Z,3.27
2023-05-19T11:06:57.770Z,3.40
2023-05-19T11:09:02.400Z,3.07
2023-05-19T11:11:14.441Z,3.90
2023-05-19T11:13:22.998Z,3.40
2023-05-19T11:15:28.140Z,3.30
2023-05-19T11:17:31.795Z,3.00
2023-05-19T11:19:37.057Z,2.90
2023-05-19T11:21:43.888Z,3.57
2023-05-19T11:23:48.066Z,3.47
2023-05-19T11:25:53.812Z,3.10
2023-05-19T11:27:57.546Z,3.50
2023-05-19T11:30:01.916Z,3.13
2023-05-19T11:32:05.570Z,3.20
2023-05-19T11:34:10.103Z,3.23
2023-05-19T11:36:13.550Z,2.97
2023-05-19T11:38:16.544Z,3.20
2023-05-19T11:40:22.969Z,3.67
2023-05-19T11:42:25.814Z,2.90
2023-05-19T11:44:28.607Z,3.10
2023-05-19T11:46:32.704Z,3.20
2023-05-19T11:48:35.916Z,2.90
2023-05-19T11:50:38.895Z,3.37
2023-05-19T11:52:45.767Z,3.50
2023-05-19T11:54:49.688Z,3.00
2023-05-19T11:56:55.416Z,3.73
2023-05-19T11:58:58.168Z,3.40
2023-05-19T12:01:05.086Z,3.23
2023-05-19T12:03:08.964Z,3.47
2023-05-19T12:05:19.495Z,3.27
2023-05-19T12:07:24.432Z,3.80
2023-05-19T12:09:29.481Z,3.43
2023-05-19T12:11:32.783Z,3.40
2023-05-19T12:13:37.243Z,3.10
2023-05-19T12:15:40.083Z,3.70
2023-05-19T12:17:43.081Z,3.90
2023-05-19T12:19:46.797Z,3.30
2023-05-19T12:21:49.610Z,3.70
2023-05-19T12:23:52.517Z,3.67
2023-05-19T12:25:55.529Z,3.40
2023-05-19T12:28:03.086Z,3.10
2023-05-19T12:30:09.441Z,3.63
2023-05-19T12:32:12.781Z,3.60
2023-05-19T12:34:15.578Z,3.20
2023-05-19T12:36:18.689Z,3.30
2023-05-19T12:38:22.100Z,3.70
2023-05-19T12:40:26.146Z,3.63
2023-05-19T12:42:31.548Z,5.23
2023-05-19T12:44:38.248Z,3.80
2023-05-19T12:46:42.696Z,3.30
2023-05-19T12:48:46.316Z,3.00
2023-05-19T12:50:49.564Z,3.17
2023-05-19T12:52:52.423Z,3.13
2023-05-19T12:55:00.026Z,3.37
2023-05-19T12:57:02.868Z,3.90
2023-05-19T12:59:05.927Z,3.40
2023-05-19T13:01:16.690Z,3.40
2023-05-19T13:03:22.095Z,3.87
2023-05-19T13:05:25.605Z,3.67
2023-05-19T13:07:28.471Z,3.40
2023-05-19T13:09:38.003Z,3.67
2023-05-19T13:11:40.796Z,3.77
2023-05-19T13:13:43.620Z,4.03
2023-05-19T13:15:48.970Z,3.43
2023-05-19T13:17:53.005Z,3.20
2023-05-19T13:19:57.204Z,3.10
2023-05-19T13:22:00.006Z,4.20
2023-05-19T13:24:04.430Z,3.90
2023-05-19T13:26:07.808Z,4.00
2023-05-19T13:28:10.980Z,4.27
2023-05-19T13:30:13.997Z,10.17
2023-05-19T13:32:16.772Z,4.53
2023-05-19T13:34:19.767Z,4.50
2023-05-19T13:36:23.890Z,3.00
2023-05-19T13:38:26.736Z,3.20
2023-05-19T13:40:32.799Z,3.40
2023-05-19T13:42:35.943Z,3.83
2023-05-19T13:44:38.704Z,4.10
2023-05-19T13:46:45.525Z,3.67
2023-05-19T13:48:49.692Z,4.20
2023-05-19T13:50:54.369Z,3.20
2023-05-19T13:52:58.508Z,3.30
2023-05-19T13:55:01.341Z,3.40
2023-05-19T13:57:04.115Z,3.70
2023-05-19T13:59:07.106Z,3.50
2023-05-19T14:01:10.181Z,3.90
2023-05-19T14:03:13.508Z,3.47
2023-05-19T14:05:16.400Z,3.80
2023-05-19T14:07:19.618Z,4.07
2023-05-19T14:09:23.949Z,3.60
2023-05-19T14:11:26.992Z,3.63
2023-05-19T14:13:34.734Z,4.17
2023-05-19T14:15:39.315Z,4.50
2023-05-19T14:17:44.836Z,3.83
2023-05-19T14:19:47.693Z,4.53
2023-05-19T14:21:51.551Z,4.43
2023-05-19T14:23:54.432Z,4.73
2023-05-19T14:25:58.629Z,4.23
2023-05-19T14:28:01.863Z,4.27
2023-05-19T14:30:06.367Z,5.33
2023-05-19T14:32:09.273Z,4.20
2023-05-19T14:34:12.119Z,4.60
2023-05-19T14:36:15.002Z,4.53
2023-05-19T14:38:17.774Z,5.20
2023-05-19T14:40:20.766Z,5.73
2023-05-19T14:42:25.562Z,4.20
2023-05-19T14:44:31.634Z,5.20
2023-05-19T14:46:34.476Z,4.70
2023-05-19T14:48:37.334Z,5.40
2023-05-19T14:50:40.182Z,4.50
2023-05-19T14:52:43.048Z,4.60
2023-05-19T14:54:45.787Z,5.27
2023-05-19T14:56:48.718Z,4.70
2023-05-19T14:58:52.854Z,4.50
2023-05-19T15:00:55.678Z,4.30
2023-05-19T15:02:58.428Z,4.60
2023-05-19T15:05:01.173Z,5.13
2023-05-19T15:09:10.677Z,4.20
2023-05-19T15:11:13.492Z,4.17
2023-05-19T15:13:18.724Z,3.90
2023-05-19T15:15:22.867Z,4.70
2023-05-19T15:17:25.623Z,7.30
2023-05-19T15:19:28.434Z,8.33
2023-05-19T15:21:31.203Z,5.73
2023-05-19T15:23:34.012Z,5.43
2023-05-19T15:25:36.773Z,4.37
2023-05-19T15:27:39.624Z,4.17
2023-05-19T15:29:42.573Z,4.33
2023-05-19T15:31:46.710Z,3.80
2023-05-19T15:33:49.542Z,4.00
2023-05-19T15:35:52.448Z,4.40
2023-05-19T15:37:55.222Z,4.20
2023-05-19T15:39:57.986Z,4.87
2023-05-19T15:42:00.745Z,4.43
2023-05-19T15:44:03.687Z,4.50
2023-05-19T15:46:06.617Z,10.83
2023-05-19T15:48:11.412Z,9.10
2023-05-19T15:50:14.961Z,5.33
2023-05-19T15:52:19.587Z,4.10
2023-05-19T15:54:22.368Z,4.73
2023-05-19T15:56:25.152Z,3.50
2023-05-19T15:58:27.872Z,4.33
2023-05-19T16:00:30.731Z,3.90
2023-05-19T16:02:33.666Z,4.50
2023-05-19T16:04:37.803Z,4.13
2023-05-19T16:06:40.579Z,4.67
2023-05-19T16:08:43.309Z,4.53
2023-05-19T16:10:46.068Z,4.40
2023-05-19T16:12:48.794Z,4.23
2023-05-19T16:14:51.538Z,4.17
2023-05-19T16:16:54.257Z,4.60
2023-05-19T16:18:57.059Z,6.03
2023-05-19T16:21:01.444Z,5.37
2023-05-19T16:23:04.191Z,5.03
2023-05-19T16:25:08.626Z,6.43
2023-05-19T16:27:11.514Z,4.80
2023-05-19T16:29:14.265Z,8.50
2023-05-19T16:31:16.980Z,9.20
2023-05-19T16:33:19.692Z,13.60
2023-05-19T16:35:22.533Z,5.77
2023-05-19T16:37:26.764Z,4.43
2023-05-19T16:39:29.467Z,4.60
2023-05-19T16:41:32.242Z,4.30
2023-05-19T16:43:35.937Z,6.03
2023-05-19T16:45:38.999Z,6.40
2023-05-19T16:47:41.778Z,6.47
2023-05-19T16:49:44.508Z,5.33
2023-05-19T16:51:48.854Z,4.40
2023-05-19T16:53:53.168Z,4.23
2023-05-19T16:55:55.889Z,3.50
2023-05-19T16:57:59.311Z,4.33
2023-05-19T17:00:03.400Z,3.83
2023-05-19T17:02:06.272Z,4.20
2023-05-19T17:04:09.207Z,4.20
2023-05-19T17:06:11.973Z,4.63
2023-05-19T17:08:14.716Z,3.97
2023-05-19T17:10:18.782Z,4.00
2023-05-19T17:12:21.517Z,3.80
2023-05-19T17:14:24.226Z,5.67
2023-05-19T17:16:27.023Z,4.20
2023-05-19T17:18:30.432Z,4.17
2023-05-19T17:20:33.410Z,3.60
2023-05-19T17:22:36.538Z,3.83
2023-05-19T17:24:39.313Z,4.03
2023-05-19T17:26:43.384Z,4.90
2023-05-19T17:28:46.233Z,6.93
2023-05-19T17:30:49.167Z,8.30
2023-05-19T17:32:52.213Z,6.23
2023-05-19T17:34:55.619Z,4.60
2023-05-19T17:36:58.334Z,4.33
2023-05-19T17:39:01.122Z,6.93
2023-05-19T17:41:09.516Z,7.90
2023-05-19T17:43:13.602Z,6.37
2023-05-19T17:45:16.420Z,9.20
2023-05-19T17:47:19.149Z,13.70
2023-05-19T17:49:22.984Z,8.73
2023-05-19T17:51:26.352Z,7.70
2023-05-19T17:53:29.592Z,5.30
2023-05-19T17:55:32.949Z,20.23
2023-05-19T17:57:36.469Z,5.60
2023-05-19T17:59:41.275Z,6.53
2023-05-19T18:01:44.412Z,4.50
2023-05-19T18:03:50.100Z,6.57
2023-05-19T18:05:53.527Z,8.57
2023-05-19T18:07:58.298Z,11.43
2023-05-19T18:10:01.521Z,9.43
2023-05-19T18:12:05.271Z,8.33
2023-05-19T18:14:07.978Z,6.33
2023-05-19T18:16:13.012Z,6.03
2023-05-19T18:18:16.254Z,4.93
2023-05-19T18:20:19.379Z,4.40
2023-05-19T18:22:22.109Z,4.73
2023-05-19T18:24:24.961Z,4.90
2023-05-19T18:26:27.753Z,4.67
2023-05-19T18:28:30.547Z,4.33
2023-05-19T18:30:33.518Z,4.90
2023-05-19T18:32:38.114Z,6.70
2023-05-19T18:34:40.832Z,4.87
2023-05-19T18:36:43.547Z,7.00
2023-05-19T18:38:47.351Z,5.63
2023-05-19T18:40:50.115Z,14.20
2023-05-19T18:42:52.846Z,7.10
2023-05-19T18:44:55.586Z,7.50
2023-05-19T18:46:58.298Z,12.23
2023-05-19T18:49:03.673Z,9.17
2023-05-19T18:51:07.275Z,9.77
2023-05-19T18:53:10.010Z,9.30
2023-05-19T18:55:12.726Z,7.50
2023-05-19T18:57:15.718Z,8.00
2023-05-19T18:59:18.444Z,8.80
2023-05-19T19:01:21.176Z,7.43
2023-05-19T19:03:24.116Z,6.20
2023-05-19T19:05:28.328Z,5.80
2023-05-19T19:07:31.430Z,5.70
2023-05-19T19:09:34.100Z,6.03
2023-05-19T19:11:36.817Z,4.43
2023-05-19T19:13:39.781Z,4.57
2023-05-19T19:15:44.050Z,4.50
2023-05-19T19:17:47.043Z,4.17
2023-05-19T19:19:49.799Z,4.33
2023-05-19T19:21:54.001Z,4.22
2023-05-19T19:23:58.115Z,4.07
2023-05-19T19:26:01.180Z,4.00
2023-05-19T19:28:03.981Z,4.80
2023-05-19T19:30:08.158Z,3.95
2023-05-19T19:32:11.200Z,4.22
2023-05-19T19:34:14.024Z,3.85
2023-05-19T19:36:16.757Z,4.67
2023-05-19T19:38:20.830Z,4.43
2023-05-19T19:40:24.836Z,4.03
2023-05-19T19:42:27.591Z,4.05
2023-05-19T19:44:30.369Z,3.92
2023-05-19T19:46:33.165Z,3.90
2023-05-19T19:48:36.135Z,4.00
2023-05-19T19:50:39.120Z,4.03
2023-05-19T19:52:41.829Z,4.00
2023-05-19T19:54:45.891Z,4.05
2023-05-19T19:56:48.549Z,4.03
2023-05-19T19:58:51.845Z,4.10
2023-05-19T20:00:58.280Z,4.70
2023-05-19T20:03:04.990Z,4.18
2023-05-19T20:05:08.744Z,4.35
2023-05-19T20:07:11.584Z,3.80
2023-05-19T20:09:14.361Z,3.63
2023-05-19T20:11:18.431Z,3.97
2023-05-19T20:13:21.257Z,3.83
2023-05-19T20:15:23.967Z,3.80
2023-05-19T20:17:26.873Z,4.50
2023-05-19T20:19:29.782Z,3.97
2023-05-19T20:21:32.651Z,3.92
2023-05-19T20:23:35.842Z,3.40
2023-05-19T20:25:58.546Z,3.47
2023-05-19T20:28:06.828Z,3.72
2023-05-19T20:30:10.251Z,3.50
2023-05-19T20:32:12.981Z,3.92
2023-05-19T20:34:15.749Z,4.30
2023-05-19T20:36:18.487Z,4.85
2023-05-19T20:38:21.309Z,3.90
2023-05-19T20:40:24.129Z,4.20
2023-05-19T20:42:26.988Z,3.67
2023-05-19T20:44:31.098Z,3.85
2023-05-19T20:46:34.017Z,3.80
2023-05-19T20:48:37.021Z,4.00
2023-05-19T20:50:40.511Z,4.38
2023-05-19T20:52:43.329Z,4.03
2023-05-19T20:54:46.348Z,3.85
2023-05-19T20:56:49.121Z,4.35
2023-05-19T20:58:51.936Z,3.72
2023-05-19T21:00:57.724Z,3.70
2023-05-19T21:03:01.394Z,3.50
2023-05-19T21:05:04.685Z,3.60
2023-05-19T21:07:07.562Z,3.78
2023-05-19T21:09:10.787Z,3.88
2023-05-19T21:11:13.628Z,3.55
2023-05-19T21:13:16.406Z,3.60
2023-05-19T21:15:19.396Z,3.63
2023-05-19T21:17:23.499Z,3.47
2023-05-19T21:19:26.277Z,3.92
2023-05-19T21:21:29.350Z,4.17
2023-05-19T21:23:32.121Z,3.83
2023-05-19T21:25:34.896Z,3.80
2023-05-19T21:27:39.422Z,4.22
2023-05-19T21:29:42.200Z,3.80
2023-05-19T21:31:45.009Z,3.50
2023-05-19T21:33:49.136Z,3.95
2023-05-19T21:35:51.879Z,3.60
2023-05-19T21:37:54.646Z,3.57
2023-05-19T21:39:57.434Z,3.50
2023-05-19T21:42:00.197Z,3.77
2023-05-19T21:44:03.510Z,3.53
2023-05-19T21:46:06.441Z,3.67
2023-05-19T21:48:09.226Z,3.40
2023-05-19T21:50:15.691Z,3.95
2023-05-19T21:52:18.958Z,5.05
2023-05-19T21:54:21.695Z,4.15
2023-05-19T21:56:24.515Z,3.97
2023-05-19T21:58:27.441Z,3.70
2023-05-19T22:00:30.291Z,2.88
2023-05-19T22:02:33.209Z,3.70
2023-05-19T22:04:37.015Z,4.20
2023-05-19T22:06:41.275Z,3.80
2023-05-19T22:08:44.036Z,3.40
2023-05-19T22:10:50.053Z,3.60
2023-05-19T22:12:52.901Z,3.70
2023-05-19T22:14:56.035Z,3.60
2023-05-19T22:16:58.811Z,3.83
2023-05-19T22:19:01.706Z,4.10
2023-05-19T22:21:04.564Z,4.10
2023-05-19T22:23:08.875Z,3.70
2023-05-19T22:25:11.625Z,3.67
2023-05-19T22:27:14.428Z,3.70
2023-05-19T22:29:18.560Z,3.87
2023-05-19T22:31:21.528Z,4.40
2023-05-19T22:33:24.302Z,3.93
2023-05-19T22:35:27.336Z,5.67
2023-05-19T22:37:30.165Z,7.47
2023-05-19T22:39:34.384Z,8.77
2023-05-19T22:41:37.169Z,7.73
2023-05-19T22:43:39.957Z,6.93
2023-05-19T22:45:42.900Z,4.67
2023-05-19T22:47:55.623Z,5.03
2023-05-19T22:49:58.461Z,4.50
2023-05-19T22:52:01.287Z,5.40
2023-05-19T22:54:04.255Z,6.80
2023-05-19T22:56:08.605Z,10.30
2023-05-19T22:58:11.383Z,8.57
2023-05-19T23:00:14.748Z,8.07
2023-05-19T23:02:17.506Z,7.77
2023-05-19T23:04:20.345Z,7.30
2023-05-19T23:06:23.198Z,7.63
2023-05-19T23:08:25.974Z,5.77
2023-05-19T23:10:28.841Z,6.47
2023-05-19T23:12:32.946Z,6.93
2023-05-19T23:14:35.796Z,8.43
2023-05-19T23:16:38.613Z,9.07
2023-05-19T23:18:41.732Z,14.57
2023-05-19T23:20:44.501Z,13.80
2023-05-19T23:22:47.274Z,10.60
2023-05-19T23:24:50.059Z,9.47
2023-05-19T23:26:54.505Z,10.00
2023-05-19T23:28:58.634Z,7.67
2023-05-19T23:31:01.528Z,9.38
2023-05-19T23:33:04.631Z,8.10
2023-05-19T23:35:12.384Z,13.25
2023-05-19T23:37:15.208Z,12.65
2023-05-19T23:39:17.930Z,9.55
2023-05-19T23:41:21.363Z,10.02
2023-05-19T23:43:24.115Z,6.50
2023-05-19T23:45:28.258Z,6.00
2023-05-19T23:47:31.263Z,5.70
2023-05-19T23:49:34.063Z,5.15
2023-05-19T23:51:36.811Z,4.43
2023-05-19T23:53:39.624Z,4.68
2023-05-19T23:55:42.440Z,6.32
2023-05-19T23:57:45.187Z,5.40
2023-05-19T23:59:48.163Z,5.00
